createdAt,value
2019-03-11T00:09:41.802Z,45.40
2019-03-11T00:19:46.746Z,45.70
2019-03-11T00:29:49.535Z,46.70
2019-03-11T00:39:50.068Z,46.50
2019-03-11T00:49:51.326Z,48.70
2019-03-11T00:59:52.621Z,49.20
2019-03-11T01:09:53.924Z,45.80
2019-03-11T01:19:55.210Z,46.20
2019-03-11T01:29:56.496Z,41.30
2019-03-11T01:39:57.785Z,42.90
2019-03-11T01:49:59.089Z,45.30
2019-03-11T02:00:00.372Z,46.30
2019-03-11T02:10:01.655Z,47.40
2019-03-11T02:20:02.919Z,47.70
2019-03-11T02:30:04.951Z,49.90
2019-03-11T02:40:06.211Z,49.90
2019-03-11T02:50:07.471Z,49.50
2019-03-11T03:00:08.767Z,50.50
2019-03-11T03:10:10.111Z,51.10
2019-03-11T03:20:11.408Z,53.20
2019-03-11T03:30:12.740Z,52.50
2019-03-11T03:40:14.039Z,53.00
2019-03-11T03:50:15.334Z,51.70
2019-03-11T04:00:16.717Z,50.40
2019-03-11T04:10:18.842Z,50.20
2019-03-11T04:20:20.979Z,49.30
2019-03-11T04:30:22.343Z,49.30
2019-03-11T04:40:24.418Z,50.00
2019-03-11T04:50:25.768Z,50.00
2019-03-11T05:00:27.097Z,48.50
2019-03-11T05:10:28.492Z,46.60
2019-03-11T05:20:29.906Z,43.40
2019-03-11T05:30:35.322Z,40.20
2019-03-11T05:40:36.653Z,37.90
2019-03-11T05:50:38.045Z,36.10
2019-03-11T06:00:39.402Z,35.40
2019-03-11T06:10:40.795Z,35.30
2019-03-11T06:20:42.101Z,37.30
2019-03-11T06:30:43.440Z,36.50
2019-03-11T06:40:46.003Z,35.80
2019-03-11T06:50:46.238Z,35.50
2019-03-11T07:00:47.538Z,36.50
2019-03-11T07:10:48.891Z,36.20
2019-03-11T07:20:50.217Z,35.10
2019-03-11T07:30:52.282Z,34.10
2019-03-11T07:40:53.582Z,34.10
2019-03-11T07:50:54.876Z,34.10
2019-03-11T08:00:56.210Z,31.70
2019-03-11T08:10:58.308Z,30.40
2019-03-11T08:20:59.697Z,30.30
2019-03-11T08:31:01.014Z,28.60
2019-03-11T08:41:03.111Z,28.90
2019-03-11T08:51:04.391Z,28.80
2019-03-11T15:10:58.227Z,42.30
2019-03-11T15:20:59.541Z,42.30
2019-03-11T15:31:10.118Z,43.00
2019-03-11T15:41:02.562Z,42.60
2019-03-11T15:51:04.555Z,42.70
2019-03-11T16:01:05.866Z,42.00
2019-03-11T16:11:07.117Z,43.50
2019-03-11T16:21:08.409Z,43.20
2019-03-11T16:31:09.739Z,46.00
2019-03-11T16:41:11.043Z,45.90
2019-03-11T16:51:12.463Z,40.90
2019-03-11T17:01:13.888Z,39.20
2019-03-11T17:11:17.042Z,40.50
2019-03-11T17:21:18.506Z,40.20
2019-03-11T17:31:20.115Z,41.70
2019-03-11T17:41:21.575Z,41.00
2019-03-11T17:51:22.942Z,42.60
2019-03-11T18:01:24.319Z,42.80
2019-03-11T18:11:26.971Z,44.30
2019-03-11T20:19:57.065Z,52.70
2019-03-11T20:40:05.854Z,56.00
2019-03-11T21:00:15.070Z,60.30
2019-03-11T21:30:29.843Z,79.40
2019-03-11T21:40:31.959Z,92.80
2019-03-11T21:50:33.288Z,92.50
2019-03-11T22:00:35.328Z,96.70
2019-03-11T22:10:35.957Z,99.90
2019-03-11T22:20:37.192Z,99.00
2019-03-11T22:30:38.493Z,99.90
2019-03-11T22:40:39.783Z,99.90
2019-03-11T22:50:41.071Z,99.90
2019-03-11T23:00:42.365Z,99.90
2019-03-11T23:10:43.650Z,99.90
2019-03-11T23:20:44.946Z,99.90
2019-03-11T23:30:46.244Z,99.90
2019-03-11T23:40:47.490Z,99.90
2019-03-11T23:50:48.766Z,99.90
